»·PEaware :: N26172 KBFL-KMHV

N26172 :: KBFL-KMHV

FLIGHT INFORMATION

Flight Status: Arrived
Operator: Privately registered:
United States
More flights under this callsign
Pilot: Sean D. (32879)
Aircraft: CESSNA 172 SKYHAWK
(C172)
More flights by this aircraft type
Origin: KBFL Meadows
United States
Destination: KMHV Mojave
United States
More flights between these airports :: More routes between these airports
Route:
File this flight plan on PilotEdge
Remarks:
Altitude:
(Current/Filed)
7,500ft
Speed:
(Current/Filed)
120kts
Departed: 20-Jan-21 12:46 PM
Arrived: 20-Jan-21 01:17 PM
Distance/Time
Traveled:
50nm/0:31
Distance/Time
To Go:
Arrived

Flight Plot

Page will automatically refresh every two minutes.


Map Options




Map Legend


Flown Route
Filed Route
Departure Airport
Arrival Airport
Navaid (VOR, NDB)
Fix

Horizontal Profiles

Position Reports

Time Latitude Longitude Heading Altitude Ground
Speed
20-Jan-21 12:30 35.429658 -119.046615 136 495ft 0kts
20-Jan-21 12:31 35.429658 -119.046615 136 495ft 0kts
20-Jan-21 12:32 35.429658 -119.046615 136 495ft 0kts
20-Jan-21 12:33 35.429189 -119.046322 196 493ft 0kts
20-Jan-21 12:34 35.429180 -119.046326 194 493ft 0kts
20-Jan-21 12:35 35.429180 -119.046326 194 493ft 0kts
20-Jan-21 12:36 35.429180 -119.046326 194 493ft 0kts
20-Jan-21 12:37 35.428675 -119.046987 223 490ft 7kts
20-Jan-21 12:38 35.425828 -119.045004 224 479ft 0kts
20-Jan-21 12:39 35.425828 -119.045005 224 479ft 0kts
20-Jan-21 12:41 35.425828 -119.045005 224 479ft 0kts
20-Jan-21 12:42 35.425828 -119.045005 224 479ft 0kts
20-Jan-21 12:43 35.425828 -119.045005 224 479ft 0kts
20-Jan-21 12:44 35.425828 -119.045005 224 479ft 0kts
20-Jan-21 12:45 35.425887 -119.046580 313 477ft 33kts
20-Jan-21 12:46 35.437625 -119.067087 261 1544ft 69kts
20-Jan-21 12:47 35.425332 -119.057374 101 2645ft 78kts
20-Jan-21 12:48 35.421334 -119.028330 101 3536ft 81kts
20-Jan-21 12:49 35.411837 -119.001146 108 4325ft 82kts
20-Jan-21 12:50 35.401102 -118.974537 108 5057ft 83kts
20-Jan-21 12:51 35.390295 -118.948140 107 5739ft 83kts
20-Jan-21 12:52 35.379143 -118.920932 106 6403ft 83kts
20-Jan-21 12:53 35.367974 -118.893684 105 7036ft 83kts
20-Jan-21 12:53 35.358754 -118.871175 105 7515ft 87kts
20-Jan-21 12:55 35.341402 -118.830564 111 7535ft 115kts
20-Jan-21 12:56 35.326090 -118.793495 111 7535ft 113kts
20-Jan-21 12:57 35.311239 -118.757374 110 7536ft 113kts
20-Jan-21 12:57 35.299185 -118.728089 110 7536ft 113kts
20-Jan-21 12:58 35.284762 -118.693084 110 7537ft 113kts
20-Jan-21 13:00 35.267816 -118.652010 109 7538ft 112kts
20-Jan-21 13:01 35.253807 -118.618070 109 7540ft 111kts
20-Jan-21 13:01 35.242111 -118.589773 108 7541ft 110kts
20-Jan-21 13:02 35.227975 -118.555650 107 7524ft 109kts
20-Jan-21 13:03 35.214008 -118.521865 107 7525ft 107kts
20-Jan-21 13:04 35.200155 -118.488378 108 7526ft 106kts
20-Jan-21 13:05 35.186257 -118.454892 107 7526ft 105kts
20-Jan-21 13:06 35.172333 -118.421386 106 7526ft 105kts
20-Jan-21 13:07 35.158444 -118.387960 107 7526ft 105kts
20-Jan-21 13:08 35.144368 -118.354164 107 7526ft 105kts
20-Jan-21 13:09 35.126875 -118.322576 130 7289ft 115kts
20-Jan-21 13:10 35.101569 -118.297469 132 6453ft 109kts
20-Jan-21 13:11 35.077316 -118.273384 130 5629ft 109kts
20-Jan-21 13:12 35.054667 -118.248162 124 4820ft 106kts
20-Jan-21 13:13 35.044924 -118.217798 88 4005ft 92kts
20-Jan-21 13:14 35.042342 -118.192342 60 3472ft 66kts
20-Jan-21 13:15 35.051501 -118.176822 49 3163ft 54kts
20-Jan-21 13:16 35.060921 -118.162445 49 2777ft 40kts
20-Jan-21 13:17 35.063855 -118.156406 140 2774ft 15kts
20-Jan-21 13:18 35.063695 -118.156207 130 2773ft 0kts
20-Jan-21 13:19 35.060414 -118.157356 194 2768ft 19kts
20-Jan-21 13:20 35.057139 -118.157011 178 2761ft 0kts

Navigation Log

Ident Type
Flight plan parsing failed, navigation log unavailable